createdAt,value
2022-08-14T00:01:54.856Z,90.18
2022-08-14T00:04:34.573Z,89.81
2022-08-14T00:07:11.093Z,90.32
2022-08-14T00:09:56.395Z,90.31
2022-08-14T00:12:33.683Z,90.62
2022-08-14T00:15:15.158Z,90.49
2022-08-14T00:17:48.214Z,90.64
2022-08-14T00:20:31.073Z,89.87
2022-08-14T00:23:16.335Z,89.76
2022-08-14T00:25:59.052Z,90.08
2022-08-14T00:28:34.933Z,90.24
2022-08-14T00:31:02.203Z,90.47
2022-08-14T00:33:52.533Z,90.05
2022-08-14T00:36:37.265Z,90.19
2022-08-14T00:39:02.268Z,90.29
2022-08-14T00:41:33.461Z,90.35
2022-08-14T00:44:01.459Z,89.90
2022-08-14T00:46:33.218Z,90.49
2022-08-14T00:49:00.870Z,90.42
2022-08-14T00:51:34.873Z,90.31
2022-08-14T00:54:20.838Z,90.11
2022-08-14T00:56:55.706Z,90.13
2022-08-14T00:59:25.155Z,90.12
2022-08-14T01:01:57.654Z,89.82
2022-08-14T01:04:38.064Z,89.94
2022-08-14T01:07:19.798Z,90.10
2022-08-14T01:09:58.885Z,90.19
2022-08-14T01:12:30.017Z,89.77
2022-08-14T01:14:59.048Z,89.69
2022-08-14T01:17:50.780Z,89.62
2022-08-14T01:20:39.674Z,89.25
2022-08-14T01:23:15.649Z,88.84
2022-08-14T01:25:46.006Z,88.86
2022-08-14T01:28:47.356Z,88.49
2022-08-14T01:30:59.852Z,88.75
2022-08-14T01:33:59.808Z,88.79
2022-08-14T01:36:23.281Z,89.08
2022-08-14T01:38:52.005Z,89.35
2022-08-14T01:41:23.086Z,89.23
2022-08-14T01:44:01.547Z,89.48
2022-08-14T01:46:36.726Z,89.32
2022-08-14T01:49:08.880Z,89.31
2022-08-14T01:51:37.423Z,89.14
2022-08-14T01:54:09.394Z,89.09
2022-08-14T01:56:40.999Z,88.92
2022-08-14T01:59:18.217Z,88.63
2022-08-14T02:01:51.426Z,88.38
2022-08-14T02:04:54.686Z,87.85
2022-08-14T02:07:15.694Z,87.67
2022-08-14T02:09:42.843Z,87.45
2022-08-14T02:12:09.699Z,87.53
2022-08-14T02:15:00.163Z,87.46
2022-08-14T02:17:30.863Z,87.29
2022-08-14T02:19:57.871Z,87.04
2022-08-14T02:22:29.096Z,86.58
2022-08-14T02:25:00.798Z,86.44
2022-08-14T02:28:24.969Z,86.39
2022-08-14T02:30:16.397Z,86.34
2022-08-14T02:32:44.620Z,86.03
2022-08-14T02:35:19.159Z,85.51
2022-08-14T02:37:49.886Z,85.47
2022-08-14T02:40:31.829Z,85.40
2022-08-14T02:42:59.944Z,85.37
2022-08-14T02:45:44.203Z,85.80
2022-08-14T02:49:03.871Z,85.49
2022-08-14T02:51:01.108Z,85.36
2022-08-14T02:53:29.752Z,85.15
2022-08-14T02:56:02.879Z,85.47
2022-08-14T02:58:42.380Z,85.11
2022-08-14T03:01:10.437Z,84.92
2022-08-14T03:03:38.855Z,84.80
2022-08-14T03:06:09.068Z,84.99
2022-08-14T03:08:38.472Z,84.67
2022-08-14T03:11:09.348Z,84.41
2022-08-14T03:13:45.359Z,84.74
2022-08-14T03:16:19.938Z,84.69
2022-08-14T03:18:56.397Z,84.77
2022-08-14T03:21:26.910Z,84.87
2022-08-14T03:24:21.690Z,84.70
2022-08-14T03:26:57.682Z,84.31
2022-08-14T03:29:26.227Z,84.62
2022-08-14T03:31:53.489Z,84.53
2022-08-14T03:34:24.641Z,84.86
2022-08-14T03:37:52.043Z,84.48
2022-08-14T03:39:59.228Z,84.08
2022-08-14T03:42:31.132Z,83.91
2022-08-14T03:45:18.801Z,84.12
2022-08-14T03:47:58.909Z,84.52
2022-08-14T03:50:31.633Z,84.81
2022-08-14T03:53:03.262Z,85.07
2022-08-14T03:55:31.038Z,85.11
2022-08-14T03:57:58.428Z,84.74
2022-08-14T04:00:45.163Z,84.68
2022-08-14T04:03:18.018Z,84.94
2022-08-14T04:05:48.842Z,85.08
2022-08-14T04:08:28.932Z,85.05
2022-08-14T04:10:58.529Z,85.49
2022-08-14T04:13:28.052Z,85.50
2022-08-14T04:16:02.413Z,85.58
2022-08-14T04:18:32.485Z,85.10
2022-08-14T04:21:01.090Z,86.12
2022-08-14T04:23:29.719Z,86.52
2022-08-14T04:26:01.027Z,86.66
2022-08-14T04:29:08.190Z,86.64
2022-08-14T04:31:15.329Z,86.37
2022-08-14T04:33:42.699Z,86.57
2022-08-14T04:36:16.064Z,86.54
2022-08-14T04:39:03.263Z,86.06
2022-08-14T04:41:48.274Z,85.93
2022-08-14T04:44:36.116Z,85.87
2022-08-14T04:47:22.606Z,85.65
2022-08-14T04:49:57.219Z,85.48
2022-08-14T04:52:24.688Z,85.54
2022-08-14T04:54:51.521Z,85.33
2022-08-14T04:57:18.054Z,85.20
2022-08-14T04:59:45.893Z,85.66
2022-08-14T05:02:13.809Z,85.72
2022-08-14T05:04:45.220Z,85.62
2022-08-14T05:07:12.146Z,85.07
2022-08-14T05:09:47.725Z,85.09
2022-08-14T05:13:10.743Z,85.33
2022-08-14T05:15:01.408Z,84.20
2022-08-14T05:17:32.227Z,83.96
2022-08-14T05:21:55.359Z,83.85
2022-08-14T05:22:59.767Z,83.67
2022-08-14T05:25:33.576Z,83.38
2022-08-14T05:28:11.567Z,82.94
2022-08-14T05:30:43.682Z,82.68
2022-08-14T05:33:12.718Z,82.27
2022-08-14T05:35:39.339Z,81.62
2022-08-14T05:38:30.668Z,81.03
2022-08-14T05:40:58.440Z,81.04
2022-08-14T05:43:25.088Z,80.66
2022-08-14T05:46:10.592Z,80.49
2022-08-14T05:48:43.249Z,80.29
2022-08-14T05:51:10.148Z,80.67
2022-08-14T05:53:42.341Z,80.89
2022-08-14T05:56:09.448Z,81.70
2022-08-14T05:58:41.310Z,81.29
2022-08-14T06:01:09.612Z,81.50
2022-08-14T06:03:37.026Z,81.74
2022-08-14T06:06:07.485Z,81.29
2022-08-14T06:08:41.307Z,82.59
2022-08-14T06:11:09.475Z,81.89
2022-08-14T06:13:44.929Z,81.18
2022-08-14T06:16:15.071Z,81.40
2022-08-14T06:18:47.429Z,79.96
2022-08-14T06:21:15.958Z,79.51
2022-08-14T06:23:44.129Z,80.17
2022-08-14T06:26:15.512Z,79.49
2022-08-14T06:28:45.419Z,79.44
2022-08-14T06:31:12.291Z,77.27
2022-08-14T06:35:02.857Z,75.82
2022-08-14T06:36:25.458Z,75.02
2022-08-14T06:38:54.371Z,74.67
2022-08-14T06:41:56.925Z,73.37
2022-08-14T06:44:10.067Z,71.42
2022-08-14T06:46:37.745Z,71.32
2022-08-14T06:49:05.135Z,71.15
2022-08-14T06:51:38.665Z,71.20
2022-08-14T06:54:11.279Z,71.39
2022-08-14T06:56:38.815Z,71.35
2022-08-14T06:59:19.539Z,72.33
2022-08-14T07:02:05.267Z,71.99
2022-08-14T07:04:50.254Z,71.59
2022-08-14T07:07:16.756Z,68.22
2022-08-14T07:09:51.252Z,68.58
2022-08-14T07:12:54.891Z,69.16
2022-08-14T07:15:06.903Z,71.10
2022-08-14T07:17:34.459Z,72.22
2022-08-14T07:20:04.467Z,71.35
2022-08-14T07:22:56.285Z,70.63
2022-08-14T07:25:20.275Z,71.11
2022-08-14T07:27:46.890Z,70.32
2022-08-14T07:30:34.207Z,68.82
2022-08-14T07:33:01.022Z,68.07
2022-08-14T07:35:37.400Z,68.17
2022-08-14T07:38:18.580Z,63.80
2022-08-14T07:40:47.788Z,61.46
2022-08-14T07:43:21.854Z,61.92
2022-08-14T07:45:50.686Z,66.12
2022-08-14T07:48:18.021Z,67.49
2022-08-14T07:50:51.870Z,67.40
2022-08-14T07:53:19.370Z,66.34
2022-08-14T07:55:46.654Z,65.70
2022-08-14T07:58:34.510Z,64.93
2022-08-14T08:01:07.399Z,63.99
2022-08-14T08:03:40.468Z,63.79
2022-08-14T08:06:17.557Z,63.27
2022-08-14T08:08:58.879Z,62.17
2022-08-14T08:11:34.648Z,61.52
2022-08-14T08:14:17.621Z,60.82
2022-08-14T08:16:47.438Z,60.37
2022-08-14T08:19:19.105Z,60.24
2022-08-14T08:21:47.129Z,55.80
2022-08-14T08:24:19.797Z,58.63
2022-08-14T08:26:47.679Z,54.88
2022-08-14T08:29:25.076Z,53.92
2022-08-14T08:32:01.881Z,53.87
2022-08-14T08:34:46.123Z,51.83
2022-08-14T08:37:13.939Z,51.64
2022-08-14T08:40:01.635Z,51.15
2022-08-14T08:42:31.509Z,51.44
2022-08-14T08:45:06.098Z,49.70
2022-08-14T08:47:41.601Z,49.23
2022-08-14T08:50:31.372Z,49.59
2022-08-14T08:53:05.819Z,48.54
2022-08-14T08:55:35.407Z,48.42
2022-08-14T08:58:16.269Z,47.71
2022-08-14T09:00:49.415Z,47.91
2022-08-14T09:03:22.922Z,47.74
2022-08-14T09:05:54.477Z,47.13
2022-08-14T09:08:31.400Z,45.08
2022-08-14T09:11:19.636Z,45.04
2022-08-14T09:13:49.663Z,44.76
2022-08-14T09:16:21.744Z,44.31
2022-08-14T09:18:50.294Z,43.81
2022-08-14T09:21:21.295Z,43.96
2022-08-14T09:24:28.093Z,43.69
2022-08-14T09:26:39.847Z,42.94
2022-08-14T09:29:07.323Z,42.40
2022-08-14T09:31:53.307Z,43.09
2022-08-14T09:34:37.019Z,42.24
2022-08-14T09:37:43.687Z,41.81
2022-08-14T09:40:38.778Z,41.60
2022-08-14T09:43:23.899Z,40.80
2022-08-14T09:45:52.893Z,40.15
2022-08-14T09:48:27.463Z,40.06
2022-08-14T09:50:58.121Z,40.02
2022-08-14T09:54:19.067Z,41.36
2022-08-14T09:56:56.585Z,40.54
2022-08-14T09:59:27.821Z,39.81
2022-08-14T10:01:57.138Z,39.25
2022-08-14T10:04:35.026Z,41.11
2022-08-14T10:07:06.264Z,39.99
2022-08-14T10:09:59.589Z,39.71
2022-08-14T10:13:05.963Z,38.58
2022-08-14T10:15:45.900Z,39.27
2022-08-14T10:18:17.658Z,38.50
2022-08-14T10:20:55.364Z,37.63
2022-08-14T10:23:24.632Z,37.97
2022-08-14T10:25:59.063Z,37.92
2022-08-14T10:28:39.170Z,38.32
2022-08-14T10:31:17.179Z,37.44
2022-08-14T10:33:59.197Z,36.87
2022-08-14T10:36:35.234Z,36.35
2022-08-14T10:39:16.600Z,35.79
2022-08-14T10:41:48.494Z,35.44
2022-08-14T10:44:24.517Z,36.09
2022-08-14T10:47:40.340Z,35.49
2022-08-14T10:49:49.987Z,36.27
2022-08-14T10:52:22.720Z,35.49
2022-08-14T10:54:56.392Z,35.13
2022-08-14T10:57:27.676Z,36.27
2022-08-14T10:59:58.470Z,35.53
2022-08-14T11:02:44.614Z,35.09
2022-08-14T11:05:18.477Z,35.04
2022-08-14T11:07:56.844Z,35.17
2022-08-14T11:10:46.783Z,35.78
2022-08-14T11:13:24.198Z,35.11
2022-08-14T11:15:52.799Z,34.68
2022-08-14T11:18:20.500Z,34.84
2022-08-14T11:20:59.692Z,35.00
2022-08-14T11:23:28.409Z,34.59
2022-08-14T11:26:07.142Z,35.03
2022-08-14T11:28:46.234Z,34.76
2022-08-14T11:31:14.426Z,34.76
2022-08-14T11:33:43.014Z,35.47
2022-08-14T11:36:18.756Z,33.86
2022-08-14T11:38:46.707Z,33.46
2022-08-14T11:41:17.170Z,33.13
2022-08-14T11:43:55.824Z,33.71
2022-08-14T11:46:30.641Z,33.51
2022-08-14T11:49:05.543Z,33.44
2022-08-14T11:51:35.952Z,32.56
2022-08-14T11:54:06.218Z,32.77
2022-08-14T11:56:41.340Z,32.21
2022-08-14T11:59:18.000Z,32.74
2022-08-14T12:01:48.827Z,32.44
2022-08-14T12:04:32.449Z,32.42
2022-08-14T12:07:01.810Z,32.59
2022-08-14T12:09:33.822Z,32.56
2022-08-14T12:12:02.571Z,33.08
2022-08-14T12:14:35.046Z,32.54
2022-08-14T12:17:12.038Z,33.45
2022-08-14T12:19:45.422Z,32.44
2022-08-14T12:22:12.239Z,32.74
2022-08-14T12:24:52.481Z,32.01
2022-08-14T12:27:25.134Z,31.14
2022-08-14T12:29:53.515Z,30.89
2022-08-14T12:32:20.124Z,31.74
2022-08-14T12:34:54.414Z,30.99
2022-08-14T12:37:29.336Z,31.81
2022-08-14T12:39:57.076Z,31.00
2022-08-14T12:42:37.894Z,30.84
2022-08-14T12:45:08.663Z,31.26
2022-08-14T12:47:35.421Z,31.74
2022-08-14T12:50:02.440Z,32.01
2022-08-14T12:52:47.519Z,32.24
2022-08-14T12:55:22.699Z,31.66
2022-08-14T12:58:02.511Z,32.54
2022-08-14T13:01:14.319Z,31.62
2022-08-14T13:03:41.496Z,32.30
2022-08-14T13:06:10.677Z,32.40
2022-08-14T13:08:37.635Z,32.59
2022-08-14T13:11:14.949Z,32.82
2022-08-14T13:13:44.827Z,32.92
2022-08-14T13:16:20.276Z,33.17
2022-08-14T13:19:01.792Z,32.76
2022-08-14T13:21:31.766Z,31.96
2022-08-14T13:24:20.273Z,30.79
2022-08-14T13:26:51.839Z,30.83
2022-08-14T13:29:23.182Z,30.51
2022-08-14T13:31:55.073Z,31.10
2022-08-14T13:34:24.006Z,31.11
2022-08-14T13:36:59.057Z,31.23
2022-08-14T13:39:31.508Z,31.58
2022-08-14T13:42:10.926Z,30.44
2022-08-14T13:44:42.590Z,30.41
2022-08-14T13:47:09.820Z,30.61
2022-08-14T13:49:38.135Z,30.89
2022-08-14T13:52:48.342Z,30.38
2022-08-14T13:55:01.438Z,29.89
2022-08-14T13:57:30.481Z,29.27
2022-08-14T14:00:01.506Z,29.29
2022-08-14T14:02:33.974Z,29.51
2022-08-14T14:05:03.433Z,29.16
2022-08-14T14:07:33.821Z,29.04
2022-08-14T14:10:09.675Z,29.04
2022-08-14T14:12:55.617Z,28.06
2022-08-14T14:15:28.456Z,29.08
2022-08-14T14:18:01.212Z,28.68
2022-08-14T14:20:34.906Z,27.55
2022-08-14T14:23:09.666Z,27.84
2022-08-14T14:25:45.788Z,27.64
2022-08-14T14:28:16.547Z,28.57
2022-08-14T14:30:57.494Z,29.37
2022-08-14T14:33:47.316Z,28.71
2022-08-14T14:36:23.384Z,29.11
2022-08-14T14:38:57.963Z,29.42
2022-08-14T14:41:37.928Z,29.29
2022-08-14T14:44:16.492Z,29.41
2022-08-14T14:46:50.171Z,29.02
2022-08-14T14:49:21.671Z,29.16
2022-08-14T14:51:51.625Z,28.49
2022-08-14T14:54:31.802Z,28.74
2022-08-14T14:57:05.064Z,29.10
2022-08-14T14:59:37.509Z,28.78
2022-08-14T15:02:09.258Z,27.97
2022-08-14T15:04:38.298Z,27.49
2022-08-14T15:07:06.418Z,26.91
2022-08-14T15:09:34.012Z,26.67
2022-08-14T15:12:00.794Z,27.06
2022-08-14T15:14:54.749Z,26.19
2022-08-14T15:17:21.060Z,25.86
2022-08-14T15:19:53.767Z,25.80
2022-08-14T15:22:25.299Z,26.04
2022-08-14T15:24:52.209Z,25.73
2022-08-14T15:27:26.342Z,24.49
2022-08-14T15:29:53.637Z,23.68
2022-08-14T15:32:23.201Z,23.38
2022-08-14T15:34:51.836Z,23.54
2022-08-14T15:37:22.764Z,23.14
2022-08-14T15:39:52.435Z,23.98
2022-08-14T15:42:20.531Z,23.26
2022-08-14T15:44:56.781Z,23.36
2022-08-14T15:47:27.976Z,23.90
2022-08-14T15:49:59.363Z,23.10
2022-08-14T15:52:32.660Z,22.90
2022-08-14T15:55:08.824Z,22.91
2022-08-14T15:57:37.191Z,22.71
2022-08-14T16:00:40.853Z,24.46
2022-08-14T16:03:12.728Z,24.61
2022-08-14T16:05:43.614Z,25.61
2022-08-14T16:08:28.898Z,27.30
2022-08-14T16:10:58.117Z,28.41
2022-08-14T16:13:39.834Z,29.33
2022-08-14T16:16:34.655Z,29.86
2022-08-14T16:19:10.884Z,30.72
2022-08-14T16:22:01.199Z,30.05
2022-08-14T16:24:33.252Z,30.64
2022-08-14T16:27:01.400Z,31.31
2022-08-14T16:29:30.434Z,31.14
2022-08-14T16:31:59.556Z,30.90
2022-08-14T16:34:46.784Z,32.30
2022-08-14T16:37:16.685Z,31.97
2022-08-14T16:39:43.760Z,31.46
2022-08-14T16:42:39.119Z,31.57
2022-08-14T16:45:00.106Z,31.79
2022-08-14T16:47:34.873Z,33.02
2022-08-14T16:50:08.930Z,32.42
2022-08-14T16:52:44.897Z,32.26
2022-08-14T16:55:22.447Z,32.25
2022-08-14T16:57:58.807Z,32.56
2022-08-14T17:00:28.451Z,32.19
2022-08-14T17:03:04.834Z,32.04
2022-08-14T17:05:38.280Z,32.92
2022-08-14T17:08:23.986Z,32.62
2022-08-14T17:10:52.231Z,32.52
2022-08-14T17:13:21.079Z,32.55
2022-08-14T17:16:24.575Z,32.04
2022-08-14T17:19:00.655Z,32.56
2022-08-14T17:21:41.023Z,32.09
2022-08-14T17:24:56.789Z,32.62
2022-08-14T17:26:59.833Z,32.64
2022-08-14T17:29:31.226Z,33.23
2022-08-14T17:34:53.337Z,35.80
2022-08-14T17:37:35.908Z,39.99
2022-08-14T17:40:20.839Z,46.49
2022-08-14T17:42:51.165Z,50.09
2022-08-14T17:45:26.823Z,56.50
2022-08-14T17:47:59.293Z,64.22
2022-08-14T17:50:59.912Z,67.69
2022-08-14T17:53:27.300Z,63.53
2022-08-14T17:56:02.511Z,69.09
2022-08-14T17:58:44.887Z,69.24
2022-08-14T18:01:14.139Z,68.22
2022-08-14T18:03:53.496Z,67.46
2022-08-14T18:06:40.098Z,68.78
2022-08-14T18:09:25.980Z,71.72
2022-08-14T18:12:01.592Z,75.51
2022-08-14T18:14:32.205Z,73.75
2022-08-14T18:17:01.055Z,77.29
2022-08-14T18:19:29.688Z,76.91
2022-08-14T18:21:58.347Z,76.36
2022-08-14T18:24:29.554Z,78.67
2022-08-14T18:27:22.778Z,78.89
2022-08-14T18:29:58.051Z,78.82
2022-08-14T18:32:27.413Z,77.65
2022-08-14T18:35:10.998Z,78.38
2022-08-14T18:37:40.999Z,78.48
2022-08-14T18:40:17.838Z,77.74
2022-08-14T18:42:49.099Z,78.08
2022-08-14T18:45:28.595Z,78.58
2022-08-14T18:48:22.814Z,77.91
2022-08-14T18:51:04.903Z,77.55
2022-08-14T18:53:52.131Z,77.90
2022-08-14T18:56:19.826Z,76.99
2022-08-14T18:58:58.530Z,76.74
2022-08-14T19:01:30.085Z,76.58
2022-08-14T19:03:59.279Z,76.03
2022-08-14T19:06:44.739Z,75.92
2022-08-14T19:09:50.322Z,75.42
2022-08-14T19:12:58.203Z,74.95
2022-08-14T19:15:31.383Z,72.30
2022-08-14T19:18:10.946Z,72.54
2022-08-14T19:20:52.942Z,73.07
2022-08-14T19:23:23.476Z,72.49
2022-08-14T19:26:36.199Z,72.19
2022-08-14T19:29:23.488Z,72.27
2022-08-14T19:31:55.458Z,71.92
2022-08-14T19:34:52.300Z,72.12
2022-08-14T19:37:43.956Z,71.35
2022-08-14T19:40:15.595Z,70.62
2022-08-14T19:42:48.979Z,70.57
2022-08-14T19:45:15.856Z,70.54
2022-08-14T19:47:42.783Z,70.40
2022-08-14T19:50:38.254Z,70.79
2022-08-14T19:53:11.380Z,70.97
2022-08-14T19:55:45.894Z,70.52
2022-08-14T19:58:12.940Z,70.31
2022-08-14T20:00:52.906Z,70.03
2022-08-14T20:03:23.316Z,69.91
2022-08-14T20:06:01.306Z,70.49
2022-08-14T20:10:59.043Z,70.33
2022-08-14T20:12:00.168Z,69.46
2022-08-14T20:14:27.934Z,69.14
2022-08-14T20:17:06.119Z,68.49
2022-08-14T20:19:37.443Z,68.25
2022-08-14T20:22:36.947Z,67.84
2022-08-14T20:25:14.060Z,68.83
2022-08-14T20:27:45.944Z,68.81
2022-08-14T20:30:33.415Z,68.45
2022-08-14T20:33:10.876Z,69.07
2022-08-14T20:35:44.428Z,69.27
2022-08-14T20:38:28.627Z,69.49
2022-08-14T20:40:59.987Z,69.52
2022-08-14T20:43:51.235Z,69.89
2022-08-14T20:46:29.380Z,71.21
2022-08-14T20:49:04.763Z,71.71
2022-08-14T20:51:43.348Z,71.40
2022-08-14T20:54:34.461Z,71.96
2022-08-14T20:57:17.631Z,72.02
2022-08-14T20:59:52.941Z,71.99
2022-08-14T21:02:30.722Z,72.28
2022-08-14T21:05:16.931Z,72.15
2022-08-14T21:07:50.208Z,73.22
2022-08-14T21:10:34.231Z,74.77
2022-08-14T21:14:08.814Z,75.29
2022-08-14T21:15:56.739Z,77.84
2022-08-14T21:18:47.688Z,79.12
2022-08-14T21:21:20.131Z,80.04
2022-08-14T21:23:55.661Z,81.33
2022-08-14T21:26:51.189Z,81.41
2022-08-14T21:29:14.358Z,81.22
2022-08-14T21:31:42.535Z,81.16
2022-08-14T21:34:30.853Z,80.74
2022-08-14T21:36:58.055Z,80.43
2022-08-14T21:39:24.808Z,78.92
2022-08-14T21:41:58.382Z,78.22
2022-08-14T21:44:42.817Z,77.62
2022-08-14T21:47:12.272Z,77.49
2022-08-14T21:49:40.248Z,76.49
2022-08-14T21:52:51.417Z,75.89
2022-08-14T21:55:12.477Z,75.21
2022-08-14T21:58:46.357Z,75.00
2022-08-14T22:00:39.488Z,75.03
2022-08-14T22:03:17.147Z,74.44
2022-08-14T22:05:46.768Z,73.31
2022-08-14T22:08:14.397Z,73.32
2022-08-14T22:10:46.468Z,73.13
2022-08-14T22:13:15.925Z,72.56
2022-08-14T22:15:49.304Z,72.60
2022-08-14T22:18:20.548Z,72.44
2022-08-14T22:20:53.840Z,72.14
2022-08-14T22:23:24.214Z,72.07
2022-08-14T22:25:51.223Z,72.17
2022-08-14T22:28:25.281Z,72.95
2022-08-14T22:30:54.898Z,72.61
2022-08-14T22:33:31.290Z,72.27
2022-08-14T22:36:00.449Z,71.28
2022-08-14T22:38:37.879Z,71.49
2022-08-14T22:41:27.781Z,71.56
2022-08-14T22:43:59.283Z,71.52
2022-08-14T22:46:27.132Z,71.13
2022-08-14T22:48:55.002Z,71.14
2022-08-14T22:51:27.569Z,71.25
2022-08-14T22:54:05.486Z,71.94
2022-08-14T22:56:33.879Z,72.07
2022-08-14T22:59:09.606Z,72.40
2022-08-14T23:01:56.811Z,74.37
2022-08-14T23:04:35.608Z,74.11
2022-08-14T23:07:21.688Z,74.41
2022-08-14T23:09:56.294Z,74.87
2022-08-14T23:12:27.575Z,74.61
2022-08-14T23:14:55.687Z,74.35
2022-08-14T23:17:22.679Z,74.43
2022-08-14T23:19:49.249Z,73.94
2022-08-14T23:22:24.410Z,74.39
2022-08-14T23:24:56.671Z,74.55
2022-08-14T23:27:31.864Z,74.80
2022-08-14T23:30:33.914Z,74.97
2022-08-14T23:33:02.571Z,75.11
2022-08-14T23:35:33.235Z,76.42
2022-08-14T23:38:01.951Z,75.69
2022-08-14T23:40:30.707Z,76.49
2022-08-14T23:43:09.310Z,76.64
2022-08-14T23:45:40.232Z,75.93
2022-08-14T23:48:10.005Z,75.89
2022-08-14T23:50:41.420Z,76.33
2022-08-14T23:53:48.035Z,76.49
2022-08-14T23:56:30.282Z,76.84
2022-08-14T23:58:59.475Z,76.47
